Time;durP1;ratioP1;P1;durP2;ratioP2;P2;SDS_P1;SDS_P2;PMS_P1;PMS_P2;Temp;Humidity;BMP_temperature;BMP_pressure;BME280_temperature;BME280_humidity;BME280_pressure;Samples;Min_cycle;Max_cycle;Signal;HPM_P1;HPM_P2
2023/10/13 00:01:32;;;;;;;14.57;12.38;;;17.40;99.90;;;;;;5113388;28;20055;-65
2023/10/13 00:03:57;;;;;;;17.70;12.27;;;17.30;99.90;;;;;;5113470;28;20111;-66
2023/10/13 00:06:23;;;;;;;15.40;12.48;;;17.30;99.90;;;;;;5113278;28;20533;-66
2023/10/13 00:08:49;;;;;;;14.20;12.55;;;17.40;99.90;;;;;;5113658;28;20098;-65
2023/10/13 00:11:15;;;;;;;15.52;12.27;;;17.30;99.90;;;;;;5112942;28;20104;-65
2023/10/13 00:13:50;;;;;;;14.20;12.10;;;17.30;99.90;;;;;;5113215;28;20130;-65
2023/10/13 00:16:28;;;;;;;13.88;12.30;;;17.30;99.90;;;;;;5113626;28;20463;-65
2023/10/13 00:18:57;;;;;;;14.55;11.85;;;17.30;99.90;;;;;;5113146;28;20445;-65
2023/10/13 00:21:31;;;;;;;18.35;12.60;;;17.20;99.90;;;;;;5112667;28;20059;-65
2023/10/13 00:24:00;;;;;;;14.40;12.20;;;17.20;99.90;;;;;;5113012;28;20460;-65
2023/10/13 00:26:28;;;;;;;16.60;11.82;;;17.10;99.90;;;;;;5112772;28;20093;-66
2023/10/13 00:31:36;;;;;;;12.90;11.60;;;17.00;99.90;;;;;;5112865;28;20059;-65
2023/10/13 00:36:48;;;;;;;13.43;10.82;;;17.20;99.90;;;;;;5113094;28;20035;-65
2023/10/13 00:39:18;;;;;;;11.90;10.13;;;17.40;99.90;;;;;;5112518;28;20508;-65
2023/10/13 00:41:57;;;;;;;13.13;10.05;;;17.60;99.90;;;;;;5112683;28;20028;-65
2023/10/13 00:44:37;;;;;;;12.15;9.30;;;17.70;99.90;;;;;;5112622;28;20109;-65
2023/10/13 00:47:07;;;;;;;12.27;9.45;;;17.80;99.90;;;;;;5112532;28;20047;-65
2023/10/13 00:49:38;;;;;;;13.77;9.50;;;17.80;99.90;;;;;;5094990;28;20027;-65
2023/10/13 00:52:04;;;;;;;14.23;8.70;;;17.90;99.90;;;;;;5112452;28;20035;-65
2023/10/13 00:54:30;;;;;;;10.13;8.00;;;17.80;99.90;;;;;;5112610;28;20028;-65
2023/10/13 00:57:11;;;;;;;11.23;8.40;;;17.80;99.90;;;;;;5112301;28;20100;-66
2023/10/13 00:59:37;;;;;;;10.60;8.45;;;17.90;99.90;;;;;;5112062;28;20523;-65
2023/10/13 01:04:48;;;;;;;11.32;8.50;;;17.90;99.90;;;;;;5112600;28;20154;-65
2023/10/13 01:07:15;;;;;;;11.85;8.38;;;17.90;99.90;;;;;;5111753;28;20650;-65
2023/10/13 01:09:46;;;;;;;11.07;8.25;;;17.80;99.90;;;;;;5112688;28;20090;-65
2023/10/13 01:12:12;;;;;;;12.25;8.60;;;17.70;99.90;;;;;;5112315;28;20040;-66
2023/10/13 01:14:38;;;;;;;12.57;8.32;;;17.60;99.90;;;;;;5112243;28;20051;-65
2023/10/13 01:17:04;;;;;;;13.15;8.07;;;17.50;99.90;;;;;;5112082;28;20146;-66
2023/10/13 01:19:30;;;;;;;11.00;8.07;;;17.40;99.90;;;;;;5111863;28;20023;-65
2023/10/13 01:22:03;;;;;;;9.52;8.00;;;17.30;99.90;;;;;;5111647;28;20031;-66
2023/10/13 01:24:34;;;;;;;13.45;8.70;;;17.20;99.90;;;;;;5111789;28;20023;-66
2023/10/13 01:27:19;;;;;;;10.80;8.50;;;17.10;99.90;;;;;;5111644;28;20050;-65
2023/10/13 01:29:50;;;;;;;11.32;8.32;;;17.10;99.90;;;;;;5111595;28;20052;-66
2023/10/13 01:32:18;;;;;;;11.18;8.32;;;17.10;99.90;;;;;;5111812;28;20024;-66
2023/10/13 01:34:47;;;;;;;11.38;7.95;;;17.00;99.90;;;;;;5111818;28;20023;-66
2023/10/13 01:37:15;;;;;;;10.80;8.07;;;17.00;99.90;;;;;;5111811;28;20031;-65
2023/10/13 01:39:41;;;;;;;12.63;8.27;;;17.00;99.90;;;;;;5111483;28;20047;-65
2023/10/13 01:42:07;;;;;;;12.85;8.20;;;16.90;99.90;;;;;;5111604;28;20439;-66
2023/10/13 01:44:33;;;;;;;11.00;8.27;;;16.90;99.90;;;;;;5112189;28;20015;-65
2023/10/13 01:47:06;;;;;;;13.18;7.72;;;16.90;99.90;;;;;;5110647;28;20424;-65
2023/10/13 01:49:41;;;;;;;10.05;7.90;;;16.90;99.90;;;;;;5111542;28;20027;-65
2023/10/13 01:52:07;;;;;;;14.95;8.45;;;16.80;99.90;;;;;;5094540;28;20031;-65
2023/10/13 01:54:33;;;;;;;11.60;7.55;;;16.80;99.90;;;;;;5111640;28;20055;-66
2023/10/13 01:56:59;;;;;;;12.48;7.72;;;16.80;99.90;;;;;;5093585;28;20051;-65
2023/10/13 01:59:26;;;;;;;13.85;7.75;;;16.70;99.90;;;;;;5111536;28;20489;-65
2023/10/13 02:01:56;;;;;;;13.43;7.70;;;16.70;99.90;;;;;;5111547;28;20027;-66
2023/10/13 02:04:22;;;;;;;13.23;8.18;;;16.70;99.90;;;;;;5111427;28;20020;-65
2023/10/13 02:06:47;;;;;;;12.38;7.60;;;16.70;99.90;;;;;;5111116;28;20128;-65
2023/10/13 02:09:13;;;;;;;14.82;8.30;;;16.60;99.90;;;;;;5111410;28;20036;-65
2023/10/13 02:11:47;;;;;;;12.15;7.72;;;16.60;99.90;;;;;;5111345;28;20446;-65
2023/10/13 02:14:16;;;;;;;;;;;16.80;99.90;;;;;;5112120;28;20030;-65
2023/10/13 02:16:41;;;;;;;11.27;7.88;;;17.00;99.90;;;;;;5110948;28;20377;-65
2023/10/13 02:19:08;;;;;;;11.07;7.68;;;17.10;99.90;;;;;;5111113;28;20111;-65
2023/10/13 02:21:39;;;;;;;13.20;8.05;;;17.10;99.90;;;;;;5110848;28;20587;-65
2023/10/13 02:24:13;;;;;;;11.98;7.78;;;17.20;99.90;;;;;;5111134;28;20043;-65
2023/10/13 02:26:40;;;;;;;14.85;7.72;;;17.20;99.90;;;;;;5111156;28;20051;-65
2023/10/13 02:29:12;;;;;;;9.27;7.53;;;17.20;99.90;;;;;;5111133;28;20514;-65
2023/10/13 02:31:39;;;;;;;12.10;7.57;;;17.20;99.90;;;;;;5111115;28;20047;-65
2023/10/13 02:34:09;;;;;;;13.07;7.63;;;17.30;99.90;;;;;;5110841;28;20393;-65
2023/10/13 02:36:48;;;;;;;12.55;7.70;;;17.20;99.90;;;;;;5111425;28;20028;-65
2023/10/13 02:39:24;;;;;;;10.57;7.75;;;17.20;99.90;;;;;;5110868;28;20394;-65
2023/10/13 02:41:50;;;;;;;11.95;7.53;;;17.20;99.90;;;;;;5111114;28;20081;-65
2023/10/13 02:44:41;;;;;;;10.02;7.32;;;17.20;99.90;;;;;;5111145;28;20027;-66
2023/10/13 02:47:13;;;;;;;11.52;7.82;;;17.10;99.90;;;;;;5110277;28;20417;-65
2023/10/13 02:49:43;;;;;;;10.07;7.85;;;17.00;99.90;;;;;;5110691;28;20066;-65
2023/10/13 02:52:09;;;;;;;10.30;7.60;;;16.70;99.90;;;;;;5111380;28;20605;-65
2023/10/13 02:54:46;;;;;;;10.45;7.20;;;16.70;99.90;;;;;;5111082;28;20024;-65
2023/10/13 02:57:12;;;;;;;12.30;7.72;;;16.50;99.90;;;;;;5110544;28;20083;-64
2023/10/13 02:59:46;;;;;;;10.80;7.78;;;16.30;99.90;;;;;;5114340;28;20027;-65
2023/10/13 03:02:31;;;;;;;11.18;7.75;;;16.40;99.90;;;;;;5115129;28;20051;-66
2023/10/13 03:05:09;;;;;;;9.38;8.07;;;16.30;99.90;;;;;;5114419;28;20020;-65
2023/10/13 03:07:36;;;;;;;10.30;8.18;;;16.30;99.90;;;;;;5113596;28;20096;-65
2023/10/13 03:10:09;;;;;;;13.45;8.23;;;16.20;99.90;;;;;;5114224;28;20027;-65
2023/10/13 03:12:48;;;;;;;13.50;8.48;;;16.10;99.90;;;;;;5114544;28;20069;-65
2023/10/13 03:15:17;;;;;;;11.50;8.38;;;16.10;99.90;;;;;;5114285;28;20031;-65
2023/10/13 03:17:44;;;;;;;10.70;8.48;;;16.10;99.90;;;;;;5113954;28;20027;-65
2023/10/13 03:20:15;;;;;;;10.30;8.65;;;16.00;99.90;;;;;;5113965;28;20019;-65
2023/10/13 03:22:44;;;;;;;11.75;8.20;;;16.00;99.90;;;;;;5114216;28;20023;-66
2023/10/13 03:25:17;;;;;;;9.32;8.20;;;15.90;99.90;;;;;;5114017;28;20027;-65
2023/10/13 03:30:20;;;;;;;16.00;9.02;;;16.00;99.90;;;;;;5113948;28;20040;-66
2023/10/13 03:32:47;;;;;;;13.65;9.00;;;15.90;99.90;;;;;;5113807;28;20039;-65
2023/10/13 03:35:25;;;;;;;10.18;8.30;;;15.90;99.90;;;;;;5114467;28;20039;-65
2023/10/13 03:37:54;;;;;;;12.98;9.00;;;15.90;99.90;;;;;;5114049;28;20032;-65
2023/10/13 03:43:09;;;;;;;12.63;8.70;;;15.80;99.90;;;;;;5113984;28;20032;-66
2023/10/13 03:45:42;;;;;;;15.70;8.90;;;15.80;99.90;;;;;;5114034;28;20030;-65
2023/10/13 03:48:28;;;;;;;13.77;8.68;;;15.80;99.90;;;;;;5113240;28;20157;-65
2023/10/13 03:51:08;;;;;;;10.98;8.60;;;15.90;99.90;;;;;;5113886;28;20034;-66
2023/10/13 03:53:36;;;;;;;14.73;8.32;;;16.20;99.90;;;;;;5113671;28;20032;-65
2023/10/13 03:56:23;;;;;;;11.60;8.43;;;16.30;99.90;;;;;;5114110;28;20077;-66
2023/10/13 03:58:49;;;;;;;12.70;8.57;;;16.40;99.90;;;;;;5113561;28;20031;-66
2023/10/13 04:01:16;;;;;;;15.43;8.30;;;16.50;99.90;;;;;;5113665;28;20259;-65
2023/10/13 04:04:04;;;;;;;11.95;8.90;;;16.50;99.90;;;;;;5113482;28;20493;-65
2023/10/13 04:17:13;;;;;;;14.45;8.45;;;16.40;99.90;;;;;;5112867;28;20066;-65
2023/10/13 04:20:12;;;;;;;11.82;8.32;;;16.40;99.90;;;;;;5113158;28;20386;-65
2023/10/13 04:23:17;;;;;;;10.20;8.18;;;16.50;99.90;;;;;;5113347;28;20035;-65
2023/10/13 04:36:20;;;;;;;10.13;7.50;;;15.80;99.90;;;;;;5113334;28;20337;-65
2023/10/13 04:38:57;;;;;;;9.70;7.38;;;15.70;99.90;;;;;;5113145;28;20023;-65
2023/10/13 04:41:39;;;;;;;11.32;7.63;;;15.70;99.90;;;;;;5112700;28;20050;-65
2023/10/13 04:44:47;;;;;;;13.07;7.03;;;15.60;99.90;;;;;;5112582;28;20027;-65
2023/10/13 04:54:49;;;;;;;9.20;6.63;;;15.60;99.90;;;;;;5112832;28;20051;-66
2023/10/13 06:29:53;;;;;;;8.45;5.70;;;15.60;99.90;;;;;;5091605;28;20063;-65
2023/10/13 06:32:25;;;;;;;11.23;5.72;;;15.60;99.90;;;;;;5090974;28;20444;-64
2023/10/13 06:34:58;;;;;;;11.27;6.13;;;15.70;99.90;;;;;;5076522;28;20074;-65
2023/10/13 06:37:30;;;;;;;14.10;5.63;;;15.70;99.90;;;;;;5094844;28;20027;-65
2023/10/13 06:40:07;;;;;;;12.27;6.30;;;15.70;99.90;;;;;;5095089;28;20467;-65
2023/10/13 06:42:42;;;;;;;10.65;5.85;;;15.60;99.90;;;;;;5094388;28;20036;-65
2023/10/13 06:45:08;;;;;;;10.68;5.95;;;15.60;99.90;;;;;;5094629;28;20074;-65
2023/10/13 06:47:42;;;;;;;11.40;5.90;;;15.60;99.90;;;;;;5094360;28;20050;-65
2023/10/13 06:50:19;;;;;;;;;;;15.60;99.90;;;;;;5094916;28;20024;-65
2023/10/13 06:52:49;;;;;;;10.85;6.32;;;15.60;99.90;;;;;;5094759;28;19912;-65
2023/10/13 06:55:23;;;;;;;12.82;6.10;;;15.60;99.90;;;;;;5094074;28;20042;-64
2023/10/13 06:57:51;;;;;;;9.77;5.80;;;15.60;99.90;;;;;;5094185;28;20116;-64
2023/10/13 07:00:27;;;;;;;8.02;5.57;;;15.60;99.90;;;;;;5094231;28;20055;-65
2023/10/13 07:02:53;;;;;;;11.70;6.30;;;15.70;99.90;;;;;;5094105;28;20099;-65
2023/10/13 07:05:19;;;;;;;9.60;5.88;;;15.70;99.90;;;;;;5094322;28;20024;-64
2023/10/13 07:07:47;;;;;;;11.10;5.38;;;15.80;99.90;;;;;;5093873;28;20054;-65
2023/10/13 07:10:13;;;;;;;9.40;5.90;;;16.00;99.90;;;;;;5093733;28;20032;-65
2023/10/13 07:12:49;;;;;;;12.25;5.93;;;16.10;99.90;;;;;;5094535;28;20081;-65
2023/10/13 07:17:44;;;;;;;9.07;5.70;;;16.50;99.90;;;;;;5094042;28;20032;-65
2023/10/13 07:20:23;;;;;;;10.05;5.82;;;16.50;99.90;;;;;;5093891;28;20024;-65
2023/10/13 07:23:06;;;;;;;7.93;5.60;;;16.60;99.90;;;;;;5094135;28;20028;-65
2023/10/13 07:25:33;;;;;;;14.43;5.57;;;16.60;99.90;;;;;;5093658;28;20055;-64
2023/10/13 07:28:00;;;;;;;11.40;5.70;;;16.60;99.90;;;;;;5093124;28;20047;-64
2023/10/13 07:30:27;;;;;;;10.52;6.10;;;16.80;99.90;;;;;;5094116;28;20039;-64
2023/10/13 07:32:57;;;;;;;9.73;5.60;;;16.90;99.90;;;;;;5093752;28;20031;-64
2023/10/13 07:35:26;;;;;;;11.15;5.68;;;17.00;99.90;;;;;;5093711;28;20029;-64
2023/10/13 07:37:55;;;;;;;8.23;5.25;;;17.10;99.90;;;;;;5093734;28;20024;-65
2023/10/13 07:42:50;;;;;;;8.48;5.72;;;17.00;99.90;;;;;;5093543;28;20031;-64
2023/10/13 07:45:24;;;;;;;10.38;5.88;;;16.80;99.90;;;;;;5092360;28;20071;-65
2023/10/13 07:47:53;;;;;;;9.10;5.50;;;16.80;99.90;;;;;;5093721;28;20494;-64
2023/10/13 07:50:25;;;;;;;11.35;5.45;;;16.90;99.90;;;;;;5093262;28;20016;-64
2023/10/13 07:55:55;;;;;;;8.48;5.43;;;16.90;99.90;;;;;;5075409;28;20040;-65
2023/10/13 07:58:25;;;;;;;9.88;6.05;;;17.10;99.90;;;;;;5093133;28;20506;-65
2023/10/13 08:01:06;;;;;;;11.27;5.03;;;17.00;99.90;;;;;;5075295;28;20028;-64
2023/10/13 08:03:44;;;;;;;11.73;5.60;;;17.10;99.90;;;;;;5093324;28;20077;-65
2023/10/13 08:08:39;;;;;;;11.15;6.05;;;17.10;99.90;;;;;;5092795;28;20103;-64
2023/10/13 08:11:24;;;;;;;9.40;5.38;;;17.20;99.90;;;;;;5092933;28;20036;-64
2023/10/13 08:13:54;;;;;;;11.07;5.50;;;17.40;99.90;;;;;;5092885;28;20028;-65
2023/10/13 08:16:23;;;;;;;10.65;5.28;;;17.60;99.90;;;;;;5092769;28;20032;-65
2023/10/13 08:18:50;;;;;;;12.23;5.60;;;17.70;99.90;;;;;;5093210;28;20023;-65
2023/10/13 08:21:17;;;;;;;11.68;6.13;;;17.70;99.90;;;;;;5092869;28;20644;-65
2023/10/13 08:34:59;;;;;;;9.55;5.50;;;18.30;99.90;;;;;;5113262;28;20058;-65
2023/10/13 08:38:17;;;;;;;12.57;5.10;;;18.40;99.90;;;;;;5112589;28;20454;-65
2023/10/13 08:40:22;;;;;;;13.95;5.20;;;18.50;99.90;;;;;;5104980;28;20063;-65
2023/10/13 08:43:11;;;;;;;5.97;4.88;;;18.70;99.90;;;;;;5112786;28;20032;-65
2023/10/13 08:53:32;;;;;;;7.25;5.10;;;19.40;99.90;;;;;;5093224;28;20294;-65
2023/10/13 09:01:48;;;;;;;12.05;5.70;;;19.90;99.90;;;;;;5030079;28;20034;-65
2023/10/13 09:09:39;;;;;;;18.35;6.05;;;20.20;99.90;;;;;;5029700;28;20138;-65
2023/10/13 09:15:06;;;;;;;11.00;6.00;;;20.40;99.90;;;;;;5041274;28;20068;-64
2023/10/13 09:17:41;;;;;;;9.98;5.55;;;20.40;99.90;;;;;;5028981;28;20108;-65
2023/10/13 09:25:33;;;;;;;8.75;5.50;;;20.80;99.90;;;;;;5045295;28;20462;-65
2023/10/13 09:28:00;;;;;;;11.27;5.38;;;20.70;99.90;;;;;;5049136;28;20048;-64
2023/10/13 09:30:28;;;;;;;9.63;5.13;;;20.90;99.90;;;;;;5045958;28;20031;-65
2023/10/13 09:33:04;;;;;;;16.20;5.57;;;20.90;99.90;;;;;;5040193;28;20021;-64
2023/10/13 09:35:34;;;;;;;10.52;5.30;;;21.00;99.90;;;;;;5093101;28;20074;-64
2023/10/13 09:38:03;;;;;;;7.72;5.70;;;21.20;99.90;;;;;;5107861;28;20031;-65
2023/10/13 09:40:34;;;;;;;8.90;5.38;;;21.20;99.90;;;;;;5091195;28;20038;-65
2023/10/13 09:43:07;;;;;;;12.48;5.50;;;21.30;99.90;;;;;;5091308;28;20016;-65
2023/10/13 09:45:39;;;;;;;10.75;5.72;;;21.30;99.90;;;;;;5096533;28;20468;-65
2023/10/13 09:48:16;;;;;;;7.97;5.30;;;21.30;99.90;;;;;;5104768;28;20387;-65
2023/10/13 09:50:44;;;;;;;7.47;5.00;;;21.40;99.90;;;;;;5110687;28;20186;-65
2023/10/13 09:53:13;;;;;;;12.65;5.40;;;21.40;99.90;;;;;;5111665;28;20030;-65
2023/10/13 09:55:46;;;;;;;12.50;5.40;;;21.50;99.90;;;;;;5112225;28;20073;-65
2023/10/13 09:58:14;;;;;;;8.02;5.20;;;21.50;99.90;;;;;;5111254;28;20020;-65
2023/10/13 10:01:07;;;;;;;10.32;5.50;;;21.70;99.90;;;;;;5102199;28;20028;-65
2023/10/13 10:03:50;;;;;;;9.93;4.70;;;21.90;99.90;;;;;;5099658;28;20028;-65
2023/10/13 10:06:27;;;;;;;11.07;5.50;;;22.20;99.90;;;;;;5096957;28;20096;-64
2023/10/13 10:09:11;;;;;;;8.32;5.35;;;22.30;99.90;;;;;;5113852;28;20024;-64
2023/10/13 10:11:40;;;;;;;;;;;22.40;99.90;;;;;;5116143;28;20452;-64
2023/10/13 10:14:47;;;;;;;73.45;21.38;;;22.70;99.90;;;;;;5115393;28;19904;-61
2023/10/13 10:17:14;;;;;;;40.28;14.48;;;22.60;99.90;;;;;;5115313;28;20041;-63
2023/10/13 10:19:56;;;;;;;22.95;10.73;;;22.60;99.90;;;;;;5113542;28;20020;-63
2023/10/13 10:22:44;;;;;;;16.52;9.10;;;22.90;99.90;;;;;;5112340;28;20405;-63
2023/10/13 10:25:25;;;;;;;18.48;9.30;;;23.00;99.90;;;;;;5115388;28;20028;-63
2023/10/13 10:28:05;;;;;;;16.75;8.20;;;23.30;99.90;;;;;;5114567;28;20088;-63
2023/10/13 10:30:38;;;;;;;12.40;6.25;;;23.50;99.90;;;;;;5114413;28;20024;-64
2023/10/13 10:33:23;;;;;;;9.40;5.00;;;23.90;99.90;;;;;;5115205;28;20035;-64
2023/10/13 10:36:00;;;;;;;10.13;4.68;;;24.20;99.90;;;;;;5114924;28;20031;-63
2023/10/13 10:41:04;;;;;;;10.05;4.47;;;24.40;99.90;;;;;;5115244;28;20058;-63
2023/10/13 10:43:42;;;;;;;8.45;4.60;;;24.50;99.90;;;;;;5115594;28;20458;-63
2023/10/13 10:46:10;;;;;;;10.57;4.50;;;24.60;99.90;;;;;;5108074;28;20035;-63
2023/10/13 10:48:38;;;;;;;7.53;3.78;;;24.80;99.90;;;;;;5099927;28;20051;-64
2023/10/13 10:51:07;;;;;;;8.77;4.05;;;25.00;99.90;;;;;;5112783;28;20028;-64
2023/10/13 10:53:43;;;;;;;12.15;4.70;;;25.10;99.90;;;;;;5104207;28;20036;-64
2023/10/13 10:58:55;;;;;;;8.80;4.00;;;25.30;99.90;;;;;;5094180;28;20457;-64
2023/10/13 11:01:33;;;;;;;7.10;3.75;;;25.00;99.90;;;;;;5100484;28;20043;-64
2023/10/13 11:04:18;;;;;;;14.40;4.15;;;24.90;99.90;;;;;;5105360;28;20020;-65
2023/10/13 11:06:57;;;;;;;7.85;4.18;;;25.20;99.90;;;;;;5094076;28;20119;-64
2023/10/13 11:09:45;;;;;;;6.80;3.83;;;25.30;99.90;;;;;;5093973;28;20473;-64
2023/10/13 11:12:15;;;;;;;12.15;4.00;;;25.70;99.90;;;;;;5093871;28;20110;-64
2023/10/13 11:14:48;;;;;;;9.02;4.15;;;25.60;99.90;;;;;;5094147;28;20027;-64
2023/10/13 11:17:33;;;;;;;10.23;4.13;;;25.60;99.90;;;;;;5093491;28;20124;-64
2023/10/13 11:20:16;;;;;;;11.15;4.00;;;25.70;99.90;;;;;;5093386;28;20035;-62
2023/10/13 11:22:46;;;;;;;10.80;4.05;;;25.60;99.90;;;;;;5094480;28;20157;-64
2023/10/13 11:25:29;;;;;;;13.20;4.50;;;25.70;99.90;;;;;;5102616;28;20117;-62
2023/10/13 11:27:56;;;;;;;10.27;3.95;;;26.00;99.90;;;;;;5113853;28;20039;-64
2023/10/13 11:30:29;;;;;;;9.50;4.32;;;26.00;99.90;;;;;;5114049;28;20417;-64
2023/10/13 11:33:05;;;;;;;9.55;3.97;;;25.90;99.90;;;;;;5113945;28;20035;-64
2023/10/13 11:38:49;;;;;;;9.40;4.32;;;25.70;99.90;;;;;;5113966;28;20084;-64
2023/10/13 11:41:15;;;;;;;14.98;4.57;;;25.60;99.90;;;;;;5113708;28;20051;-64
2023/10/13 11:49:47;;;;;;;12.27;4.72;;;24.90;99.90;;;;;;5114335;28;20114;-64
2023/10/13 11:52:01;;;;;;;12.45;4.32;;;24.80;99.90;;;;;;5086359;28;20135;-64
2023/10/13 11:54:27;;;;;;;10.15;4.50;;;24.80;99.90;;;;;;5093217;28;20032;-64
2023/10/13 11:56:58;;;;;;;9.70;4.45;;;24.80;99.90;;;;;;5093087;28;20504;-64
2023/10/13 11:59:27;;;;;;;11.55;4.40;;;24.80;99.90;;;;;;5093215;28;20028;-64
2023/10/13 12:04:43;;;;;;;11.35;4.80;;;24.70;99.90;;;;;;5098274;28;20024;-64
2023/10/13 12:12:21;;;;;;;;;;;24.90;99.90;;;;;;5093337;28;20444;-64
2023/10/13 12:14:52;;;;;;;10.27;5.00;;;25.00;99.90;;;;;;5074442;28;19908;-64
2023/10/13 12:17:39;;;;;;;13.10;4.55;;;25.10;99.90;;;;;;5092946;28;20036;-63
2023/10/13 12:20:09;;;;;;;10.40;4.65;;;25.20;99.90;;;;;;5092879;28;20032;-64
2023/10/13 12:22:39;;;;;;;11.25;4.75;;;25.10;99.90;;;;;;5093189;28;20034;-64
2023/10/13 12:26:19;;;;;;;11.52;5.30;;;25.20;99.90;;;;;;5095777;28;20503;-63
2023/10/13 12:28:23;;;;;;;12.18;5.20;;;25.20;99.90;;;;;;5093282;28;20124;-64
2023/10/13 12:30:49;;;;;;;14.67;5.37;;;25.30;99.90;;;;;;5103541;28;20627;-64
2023/10/13 12:33:24;;;;;;;10.90;5.22;;;25.40;99.90;;;;;;5092771;28;20028;-64
2023/10/13 12:36:30;;;;;;;13.30;5.43;;;25.30;99.90;;;;;;5092438;28;20032;-64
2023/10/13 12:52:25;;;;;;;14.20;5.97;;;25.60;99.90;;;;;;5100326;28;20055;-62
2023/10/13 12:57:27;;;;;;;11.75;5.60;;;25.60;99.90;;;;;;5101710;28;20506;-62
2023/10/13 12:59:53;;;;;;;13.68;5.43;;;25.50;99.90;;;;;;5092159;28;20562;-62
2023/10/13 13:02:27;;;;;;;12.40;5.10;;;25.50;99.90;;;;;;5091967;28;20495;-62
2023/10/13 13:05:22;;;;;;;;;;;25.60;99.90;;;;;;5092339;28;20036;-62
2023/10/13 13:07:52;;;;;;;15.35;5.78;;;25.50;99.90;;;;;;5091239;28;19912;-62
2023/10/13 13:10:18;;;;;;;13.13;5.28;;;25.40;99.90;;;;;;5091733;28;20032;-62
2023/10/13 13:12:44;;;;;;;12.18;4.70;;;25.30;99.90;;;;;;5091512;28;20093;-62
2023/10/13 13:15:11;;;;;;;12.00;5.18;;;25.20;99.90;;;;;;5091781;28;20482;-62
2023/10/13 13:17:38;;;;;;;10.05;5.47;;;25.10;99.90;;;;;;5091558;28;20089;-61
2023/10/13 13:20:12;;;;;;;11.15;5.60;;;25.10;99.90;;;;;;5095365;28;20078;-62
2023/10/13 13:22:40;;;;;;;13.32;5.18;;;25.20;99.90;;;;;;5100482;28;20063;-62
2023/10/13 13:25:08;;;;;;;12.93;5.25;;;25.20;99.90;;;;;;5109226;28;20027;-62
2023/10/13 13:27:34;;;;;;;13.60;5.10;;;25.20;99.90;;;;;;5111124;28;20043;-62
2023/10/13 13:30:00;;;;;;;12.65;5.50;;;25.20;99.90;;;;;;5111878;28;20031;-62
2023/10/13 13:32:28;;;;;;;11.43;5.03;;;25.20;99.90;;;;;;5111744;28;20038;-62
2023/10/13 13:35:04;;;;;;;11.38;4.82;;;25.10;99.90;;;;;;5104711;28;20028;-63
2023/10/13 13:37:31;;;;;;;9.30;4.97;;;25.10;99.90;;;;;;5106149;28;20036;-62
2023/10/13 13:40:13;;;;;;;15.07;5.75;;;25.10;99.90;;;;;;5111418;28;20027;-62
2023/10/13 13:42:40;;;;;;;14.07;5.80;;;25.10;99.90;;;;;;5111791;28;20062;-61
2023/10/13 13:45:11;;;;;;;14.85;5.65;;;25.40;99.90;;;;;;5111797;28;20035;-62
2023/10/13 13:47:37;;;;;;;13.02;5.25;;;25.40;99.90;;;;;;5111875;28;20046;-62
2023/10/13 13:50:14;;;;;;;14.65;5.35;;;25.80;99.90;;;;;;5111815;28;20031;-63
2023/10/13 13:52:45;;;;;;;12.25;5.20;;;25.90;99.90;;;;;;5111903;28;20034;-62
2023/10/13 13:55:17;;;;;;;15.18;5.45;;;26.10;99.90;;;;;;5109112;28;20024;-62
2023/10/13 13:57:44;;;;;;;14.48;5.30;;;26.30;99.90;;;;;;5101502;28;20055;-61
2023/10/13 14:00:18;;;;;;;14.35;6.07;;;26.40;99.90;;;;;;5111937;28;20028;-61
2023/10/13 14:02:50;;;;;;;18.17;6.22;;;26.40;99.90;;;;;;5095321;28;20092;-62
2023/10/13 14:05:16;;;;;;;11.18;5.20;;;26.40;99.90;;;;;;5091216;28;20481;-62
2023/10/13 14:07:48;;;;;;;11.88;5.68;;;26.40;99.90;;;;;;5090650;28;20036;-62
2023/10/13 14:11:13;;;;;;;13.10;5.95;;;26.70;99.90;;;;;;5072492;28;20054;-62
2023/10/13 14:13:22;;;;;;;14.20;5.85;;;26.90;99.90;;;;;;5090911;28;20454;-62
2023/10/13 14:15:48;;;;;;;16.08;5.90;;;26.80;99.90;;;;;;5090950;28;20074;-62
2023/10/13 14:18:16;;;;;;;15.70;5.72;;;26.80;99.90;;;;;;5090832;28;20028;-62
2023/10/13 14:20:42;;;;;;;14.85;5.75;;;26.60;99.90;;;;;;5090972;28;20032;-62
2023/10/13 14:23:11;;;;;;;15.82;6.47;;;26.60;99.90;;;;;;5090572;28;20024;-63
2023/10/13 14:25:38;;;;;;;12.45;5.72;;;26.40;99.90;;;;;;5108237;28;20114;-62
2023/10/13 14:28:07;;;;;;;17.58;5.75;;;26.40;99.90;;;;;;5110857;28;20075;-62
2023/10/13 14:30:33;;;;;;;16.63;6.05;;;26.30;99.90;;;;;;5111624;28;20610;-62
2023/10/13 14:32:59;;;;;;;16.17;5.53;;;26.20;99.90;;;;;;5111350;28;20397;-61
2023/10/13 14:35:28;;;;;;;18.52;6.10;;;26.10;99.90;;;;;;5111134;28;20016;-62
2023/10/13 14:37:55;;;;;;;14.48;5.68;;;25.90;99.90;;;;;;5110969;28;20543;-62
2023/10/13 14:40:21;;;;;;;14.75;5.65;;;25.80;99.90;;;;;;5111148;28;20062;-62
2023/10/13 14:42:48;;;;;;;20.25;6.40;;;25.80;99.90;;;;;;5110826;28;20081;-62
2023/10/13 14:45:16;;;;;;;15.48;5.85;;;25.70;99.90;;;;;;5111223;28;20027;-62
2023/10/13 14:47:42;;;;;;;15.35;6.30;;;25.80;99.90;;;;;;5111274;28;20054;-62
2023/10/13 14:50:17;;;;;;;10.90;5.90;;;26.20;99.90;;;;;;5111175;28;20023;-62
2023/10/13 14:52:43;;;;;;;12.90;5.57;;;26.50;99.90;;;;;;5111364;28;20080;-62
2023/10/13 14:55:18;;;;;;;16.83;6.07;;;26.40;99.90;;;;;;5113273;28;20044;-62
2023/10/13 14:57:46;;;;;;;18.77;6.25;;;26.40;99.90;;;;;;5114943;28;20032;-62
2023/10/13 15:00:14;;;;;;;15.60;5.72;;;26.50;99.90;;;;;;5114575;28;20028;-62
2023/10/13 15:02:43;;;;;;;14.30;6.03;;;26.40;99.90;;;;;;5114817;28;20023;-62
2023/10/13 15:05:16;;;;;;;13.60;5.32;;;26.30;99.90;;;;;;5114279;28;20028;-62
2023/10/13 15:07:45;;;;;;;15.15;6.00;;;26.10;99.90;;;;;;5097458;28;20031;-62
2023/10/13 15:10:15;;;;;;;15.38;5.93;;;25.70;99.90;;;;;;5114223;28;20089;-61
2023/10/13 15:12:48;;;;;;;15.70;6.18;;;25.60;99.90;;;;;;5114617;28;20042;-62
2023/10/13 15:15:16;;;;;;;13.32;5.20;;;25.40;99.90;;;;;;5114597;28;20015;-62
2023/10/13 15:17:42;;;;;;;16.27;5.30;;;25.30;99.90;;;;;;5114959;28;20394;-62
2023/10/13 15:20:18;;;;;;;16.08;5.68;;;25.20;99.90;;;;;;5114220;28;20035;-62
2023/10/13 15:22:44;;;;;;;15.65;5.78;;;25.10;99.90;;;;;;5114110;28;20501;-64
2023/10/13 15:25:28;;;;;;;13.85;6.03;;;25.10;99.90;;;;;;5114185;28;20020;-64
2023/10/13 15:28:05;;;;;;;18.83;5.95;;;24.90;99.90;;;;;;5114096;28;20047;-64
2023/10/13 15:30:56;;;;;;;14.80;5.65;;;24.80;99.90;;;;;;5114151;28;20035;-64
2023/10/13 15:33:23;;;;;;;20.42;10.80;;;24.70;99.90;;;;;;5114933;28;20026;-64
2023/10/13 15:35:49;;;;;;;26.17;17.30;;;24.60;99.90;;;;;;5113862;28;20027;-64
2023/10/13 15:38:14;;;;;;;26.92;20.05;;;24.50;99.90;;;;;;5113817;28;20024;-64
2023/10/13 15:40:44;;;;;;;24.05;16.17;;;24.60;99.90;;;;;;5114147;28;20044;-64
2023/10/13 15:43:10;;;;;;;15.02;8.82;;;24.50;99.90;;;;;;5114038;28;20028;-64
2023/10/13 15:45:39;;;;;;;22.92;9.57;;;24.50;99.90;;;;;;5113940;28;20020;-66
2023/10/13 15:48:05;;;;;;;20.20;11.85;;;24.50;99.90;;;;;;5113755;28;20035;-66
2023/10/13 15:50:41;;;;;;;25.00;14.20;;;24.40;99.90;;;;;;5105489;28;20043;-66
2023/10/13 15:53:08;;;;;;;17.45;9.15;;;24.40;99.90;;;;;;5101305;28;20039;-66
2023/10/13 15:55:37;;;;;;;20.83;9.07;;;24.60;99.90;;;;;;5095200;28;20425;-66
2023/10/13 15:58:09;;;;;;;17.17;6.47;;;24.60;99.90;;;;;;5102338;28;20023;-66
2023/10/13 16:00:38;;;;;;;15.27;6.68;;;24.50;99.90;;;;;;5113252;28;20493;-66
2023/10/13 16:03:10;;;;;;;21.15;10.25;;;24.40;99.90;;;;;;5113939;28;20665;-65
2023/10/13 16:05:37;;;;;;;18.75;9.73;;;24.60;99.90;;;;;;5112267;28;20023;-66
2023/10/13 16:08:06;;;;;;;24.77;8.85;;;24.50;99.90;;;;;;5113316;28;20051;-66
2023/10/13 16:10:33;;;;;;;17.38;8.70;;;24.40;99.90;;;;;;5113834;28;20016;-66
2023/10/13 16:12:59;;;;;;;22.75;10.27;;;24.40;99.90;;;;;;5113356;28;20045;-66
2023/10/13 16:15:24;;;;;;;17.98;8.57;;;24.30;99.90;;;;;;5113543;28;20099;-66
2023/10/13 16:17:53;;;;;;;19.10;8.07;;;24.30;99.90;;;;;;5113116;28;20366;-66
2023/10/13 16:20:20;;;;;;;20.15;8.70;;;24.30;99.90;;;;;;5113417;28;20080;-65
2023/10/13 16:22:47;;;;;;;19.42;8.43;;;24.30;99.90;;;;;;5112879;28;20055;-65
2023/10/13 16:25:14;;;;;;;19.33;8.65;;;24.30;99.90;;;;;;5112785;28;20081;-66
2023/10/13 16:27:43;;;;;;;24.13;9.00;;;24.10;99.90;;;;;;5112811;28;20035;-66
2023/10/13 16:30:14;;;;;;;18.92;8.63;;;24.10;99.90;;;;;;5113037;28;20044;-66
2023/10/13 16:32:47;;;;;;;19.42;8.90;;;24.20;99.90;;;;;;5113556;28;20077;-65
2023/10/13 16:35:17;;;;;;;19.70;8.68;;;24.20;99.90;;;;;;5112673;28;20604;-66
2023/10/13 16:37:50;;;;;;;15.75;8.43;;;24.10;99.90;;;;;;5112865;28;20034;-66
2023/10/13 16:40:18;;;;;;;23.25;9.45;;;24.00;99.90;;;;;;5112927;28;20047;-66
2023/10/13 16:42:45;;;;;;;22.52;9.27;;;23.70;99.90;;;;;;5113110;28;20147;-66
2023/10/13 16:45:43;;;;;;;25.52;8.88;;;23.50;99.90;;;;;;5112674;28;20059;-66